createdAt,value
2022-11-15T00:02:22.287Z,100840
2022-11-15T00:07:48.300Z,100830
2022-11-15T00:12:20.688Z,100830
2022-11-15T00:17:20.803Z,100840
2022-11-15T00:22:21.650Z,100830
2022-11-15T00:27:20.723Z,100830
2022-11-15T00:32:20.756Z,100830
2022-11-15T00:37:20.733Z,100830
2022-11-15T00:42:20.798Z,100830
2022-11-15T00:47:20.781Z,100810
2022-11-15T00:52:20.798Z,100820
2022-11-15T00:57:21.338Z,100810
2022-11-15T01:02:21.285Z,100810
2022-11-15T01:07:20.876Z,100800
2022-11-15T01:12:20.840Z,100800
2022-11-15T01:17:20.978Z,100790
2022-11-15T01:22:21.023Z,100780
2022-11-15T01:27:20.911Z,100780
2022-11-15T01:32:20.987Z,100780
2022-11-15T01:37:20.910Z,100770
2022-11-15T01:42:20.924Z,100770
2022-11-15T01:47:26.199Z,100770
2022-11-15T01:52:23.945Z,100770
2022-11-15T01:57:21.063Z,100770
2022-11-15T02:02:21.549Z,100760
2022-11-15T02:07:22.431Z,100770
2022-11-15T02:12:21.978Z,100750
2022-11-15T02:17:40.883Z,100740
2022-11-15T02:22:33.705Z,100740
2022-11-15T02:27:40.898Z,100740
2022-11-15T02:32:30.620Z,100730
2022-11-15T02:37:38.414Z,100720
2022-11-15T02:42:33.444Z,100710
2022-11-15T02:47:23.235Z,100700
2022-11-15T02:52:23.525Z,100700
2022-11-15T02:57:35.381Z,100700
2022-11-15T03:02:41.018Z,100700
2022-11-15T03:07:29.592Z,100690
2022-11-15T03:12:32.388Z,100690
2022-11-15T03:17:27.449Z,100690
2022-11-15T03:22:25.875Z,100690
2022-11-15T03:27:24.503Z,100700
2022-11-15T03:32:26.170Z,100710
2022-11-15T03:37:27.668Z,100700
2022-11-15T03:42:36.743Z,100700
2022-11-15T03:47:28.977Z,100690
2022-11-15T03:52:22.154Z,100700
2022-11-15T03:57:22.213Z,100700
2022-11-15T04:02:21.774Z,100700
2022-11-15T04:07:21.453Z,100700
2022-11-15T04:12:21.268Z,100690
2022-11-15T04:17:21.277Z,100680
2022-11-15T04:22:21.263Z,100680
2022-11-15T04:27:21.266Z,100680
2022-11-15T04:32:21.328Z,100680
2022-11-15T04:37:21.292Z,100690
2022-11-15T04:42:21.300Z,100690
2022-11-15T04:47:21.422Z,100690
2022-11-15T04:52:21.337Z,100680
2022-11-15T04:57:21.362Z,100680
2022-11-15T05:02:21.884Z,100660
2022-11-15T05:07:21.460Z,100680
2022-11-15T05:12:21.363Z,100680
2022-11-15T05:17:21.386Z,100680
2022-11-15T05:22:21.747Z,100690
2022-11-15T05:27:21.407Z,100690
2022-11-15T05:32:21.459Z,100690
2022-11-15T05:37:21.476Z,100690
2022-11-15T05:42:21.706Z,100690
2022-11-15T05:47:24.947Z,100690
2022-11-15T05:52:28.146Z,100690
2022-11-15T05:57:21.494Z,100700
2022-11-15T06:02:23.066Z,100700
2022-11-15T06:07:21.961Z,100700
2022-11-15T06:12:21.623Z,100700
2022-11-15T06:17:21.529Z,100700
2022-11-15T06:22:21.536Z,100700
2022-11-15T06:27:21.533Z,100690
2022-11-15T06:32:21.553Z,100700
2022-11-15T06:37:21.629Z,100710
2022-11-15T06:42:21.568Z,100720
2022-11-15T06:47:21.616Z,100720
2022-11-15T06:52:21.663Z,100720
2022-11-15T06:57:21.676Z,100730
2022-11-15T07:02:22.150Z,100730
2022-11-15T07:07:21.827Z,100740
2022-11-15T07:12:21.686Z,100740
2022-11-15T07:17:21.709Z,100750
2022-11-15T07:22:21.685Z,100750
2022-11-15T07:27:21.736Z,100750
2022-11-15T07:32:21.695Z,100750
2022-11-15T07:37:21.783Z,100750
2022-11-15T07:42:21.709Z,100740
2022-11-15T07:47:21.745Z,100730
2022-11-15T07:52:21.770Z,100730
2022-11-15T07:57:21.737Z,100730
2022-11-15T08:02:27.647Z,100720
2022-11-15T08:07:21.848Z,100730
2022-11-15T08:12:22.415Z,100730
2022-11-15T08:17:23.344Z,100730
2022-11-15T08:22:21.803Z,100730
2022-11-15T08:27:21.845Z,100730
2022-11-15T08:32:21.841Z,100730
2022-11-15T08:37:21.858Z,100730
2022-11-15T08:42:21.837Z,100720
2022-11-15T08:47:21.939Z,100720
2022-11-15T08:52:22.039Z,100720
2022-11-15T08:57:21.921Z,100710
2022-11-15T09:02:23.687Z,100710
2022-11-15T09:07:22.006Z,100710
2022-11-15T09:12:21.927Z,100710
2022-11-15T09:17:24.691Z,100710
2022-11-15T09:22:21.943Z,100700
2022-11-15T09:27:22.015Z,100690
2022-11-15T09:32:22.921Z,100680
2022-11-15T09:37:22.033Z,100670
2022-11-15T09:42:26.121Z,100670
2022-11-15T09:47:38.448Z,100670
2022-11-15T09:52:22.070Z,100670
2022-11-15T09:57:22.008Z,100670
2022-11-15T10:02:41.953Z,100690
2022-11-15T10:07:33.315Z,100670
2022-11-15T10:12:22.727Z,100670
2022-11-15T10:17:35.249Z,100670
2022-11-15T10:22:39.381Z,100650
2022-11-15T10:27:23.418Z,100650
2022-11-15T10:32:22.181Z,100640
2022-11-15T10:37:31.074Z,100640
2022-11-15T10:42:29.127Z,100640
2022-11-15T10:47:25.396Z,100620
2022-11-15T10:52:22.541Z,100610
2022-11-15T10:57:25.168Z,100610
2022-11-15T11:02:31.323Z,100600
2022-11-15T11:07:25.275Z,100590
2022-11-15T11:12:28.411Z,100590
2022-11-15T11:17:39.648Z,100590
2022-11-15T11:22:42.105Z,100580
2022-11-15T11:27:35.864Z,100590
2022-11-15T11:32:32.184Z,100570
2022-11-15T11:37:37.451Z,100580
2022-11-15T11:42:37.456Z,100560
2022-11-15T11:47:28.689Z,100550
2022-11-15T11:52:28.228Z,100530
2022-11-15T11:57:33.003Z,100530
2022-11-15T12:02:31.619Z,100520
2022-11-15T12:07:29.462Z,100520
2022-11-15T12:12:38.084Z,100520
2022-11-15T12:17:26.238Z,100500
2022-11-15T12:22:34.259Z,100490
2022-11-15T12:27:37.282Z,100490
2022-11-15T12:32:33.411Z,100480
2022-11-15T12:37:39.769Z,100470
2022-11-15T12:42:22.379Z,100460
2022-11-15T12:47:25.502Z,100450
2022-11-15T12:52:22.442Z,100440
2022-11-15T12:57:30.641Z,100430
2022-11-15T13:02:29.124Z,100420
2022-11-15T13:07:35.755Z,100410
2022-11-15T13:12:22.448Z,100410
2022-11-15T13:17:26.388Z,100400
2022-11-15T13:22:22.571Z,100400
2022-11-15T13:27:22.712Z,100390
2022-11-15T13:32:22.795Z,100380
2022-11-15T13:37:22.532Z,100370
2022-11-15T13:42:22.546Z,100360
2022-11-15T13:47:26.024Z,100350
2022-11-15T13:52:27.730Z,100350
2022-11-15T13:57:26.007Z,100340
2022-11-15T14:02:29.070Z,100330
2022-11-15T14:07:25.833Z,100320
2022-11-15T14:12:33.757Z,100320
2022-11-15T14:17:29.924Z,100310
2022-11-15T14:22:24.997Z,100300
2022-11-15T14:27:25.645Z,100290
2022-11-15T14:32:25.296Z,100280
2022-11-15T14:37:26.050Z,100270
2022-11-15T14:42:23.416Z,100260
2022-11-15T14:47:22.672Z,100250
2022-11-15T14:52:31.606Z,100250
2022-11-15T14:57:22.695Z,100230
2022-11-15T15:02:25.785Z,100230
2022-11-15T15:07:22.896Z,100220
2022-11-15T15:12:23.407Z,100210
2022-11-15T15:17:22.757Z,100200
2022-11-15T15:22:27.017Z,100190
2022-11-15T15:27:22.761Z,100190
2022-11-15T15:32:22.778Z,100180
2022-11-15T15:37:24.911Z,100170
2022-11-15T15:42:23.384Z,100170
2022-11-15T15:47:23.345Z,100160
2022-11-15T15:52:22.830Z,100160
2022-11-15T15:57:22.859Z,100140
2022-11-15T16:02:23.413Z,100140
2022-11-15T16:07:23.113Z,100140
2022-11-15T16:12:22.862Z,100140
2022-11-15T16:17:32.905Z,100130
2022-11-15T16:22:23.076Z,100140
2022-11-15T16:27:23.501Z,100160
2022-11-15T16:32:22.970Z,100130
2022-11-15T16:37:23.412Z,100160
2022-11-15T16:42:22.936Z,100140
2022-11-15T16:47:22.949Z,100140
2022-11-15T16:52:22.940Z,100150
2022-11-15T16:57:23.002Z,100150
2022-11-15T17:02:24.447Z,100150
2022-11-15T17:07:23.039Z,100150
2022-11-15T17:12:23.007Z,100150
2022-11-15T17:17:23.031Z,100140
2022-11-15T17:22:23.892Z,100140
2022-11-15T17:27:23.047Z,100130
2022-11-15T17:32:23.061Z,100120
2022-11-15T17:37:23.057Z,100130
2022-11-15T17:42:23.091Z,100130
2022-11-15T17:47:23.122Z,100120
2022-11-15T17:52:23.112Z,100110
2022-11-15T17:57:23.093Z,100110
2022-11-15T18:02:23.636Z,100110
2022-11-15T18:07:23.203Z,100110
2022-11-15T18:12:23.127Z,100100
2022-11-15T18:17:23.165Z,100090
2022-11-15T18:22:23.182Z,100090
2022-11-15T18:27:23.201Z,100080
2022-11-15T18:32:23.180Z,100070
2022-11-15T18:37:23.220Z,100070
2022-11-15T18:42:23.230Z,100070
2022-11-15T18:47:23.245Z,100060
2022-11-15T18:52:23.225Z,100060
2022-11-15T18:57:23.216Z,100060
2022-11-15T19:02:23.747Z,100050
2022-11-15T19:07:23.373Z,100050
2022-11-15T19:12:23.259Z,100040
2022-11-15T19:17:23.321Z,100050
2022-11-15T19:22:23.317Z,100050
2022-11-15T19:27:23.283Z,100050
2022-11-15T19:32:23.347Z,100050
2022-11-15T19:37:23.314Z,100040
2022-11-15T19:42:23.328Z,100040
2022-11-15T19:47:23.334Z,100040
2022-11-15T19:52:23.391Z,100040
2022-11-15T19:57:23.365Z,100040
2022-11-15T20:02:23.795Z,100020
2022-11-15T20:07:23.506Z,100020
2022-11-15T20:12:23.405Z,100020
2022-11-15T20:17:23.458Z,100020
2022-11-15T20:22:24.365Z,100010
2022-11-15T20:27:23.433Z,100010
2022-11-15T20:32:23.450Z,100000
2022-11-15T20:37:23.469Z,100000
2022-11-15T20:42:23.614Z,99990
2022-11-15T20:47:29.000Z,99990
2022-11-15T20:52:23.926Z,100000
2022-11-15T20:57:23.505Z,99990
2022-11-15T21:02:25.252Z,99990
2022-11-15T21:07:23.907Z,99980
2022-11-15T21:12:23.550Z,99970
2022-11-15T21:17:23.565Z,99970
2022-11-15T21:22:23.584Z,99960
2022-11-15T21:27:23.889Z,99950
2022-11-15T21:32:23.604Z,99950
2022-11-15T21:37:23.586Z,99950
2022-11-15T21:42:23.601Z,99940
2022-11-15T21:47:23.634Z,99940
2022-11-15T21:52:23.662Z,99940
2022-11-15T21:57:23.663Z,99940
2022-11-15T22:02:24.482Z,99940
2022-11-15T22:07:23.736Z,99930
2022-11-15T22:12:28.481Z,99920
2022-11-15T22:17:23.888Z,99910
2022-11-15T22:22:23.717Z,99910
2022-11-15T22:27:23.708Z,99900
2022-11-15T22:32:23.739Z,99900
2022-11-15T22:37:23.773Z,99890
2022-11-15T22:42:24.240Z,99890
2022-11-15T22:47:24.422Z,99880
2022-11-15T22:52:23.840Z,99880
2022-11-15T22:57:23.858Z,99870
2022-11-15T23:02:26.069Z,99870
2022-11-15T23:07:23.965Z,99860
2022-11-15T23:12:23.831Z,99860
2022-11-15T23:17:23.848Z,99850
2022-11-15T23:22:23.847Z,99850
2022-11-15T23:27:23.962Z,99850
2022-11-15T23:32:24.015Z,99850
2022-11-15T23:37:23.856Z,99850
2022-11-15T23:42:23.905Z,99840
2022-11-15T23:47:23.942Z,99840
2022-11-15T23:52:23.936Z,99850
2022-11-15T23:57:23.946Z,99840
